KFVE

Northern Aroostook Regional Airport

Frenchville, Maine, USA
METAR KFVE 140653Z AUTO 16004KT 10SM CLR M14/M19 A3037 RMK AO2 SLP305 T11441189 $
Observed Flight Rules
Dec-14 @ 06:53 UTC (2 hours ago) Visual Flight Rules
Wind Visibility Clouds
160° at 4 knots 10 miles
  • Clear skies
Temperatures Readings
Current -14°C / 7°F
Dewpoint -19°C / -2°F
Humidity 66%
Altimeter 30.37" Hg
Pressure 1030.5 hPa
Elevation 301
METAR KFVE 140653Z AUTO 16004KT 10SM CLR M14/M19 A3037 RMK AO2 SLP305 T11441189 $
Observed Flight Rules
Dec-14 @ 06:53 UTC
(2 hours ago)
VFR
Wind Visibility
160° at 4 knots 10 miles
Clouds
  • Clear skies
Temperature Dewpoint
-14°C / 7°F -19°C / -2°F
Humidity Altimeter Pressure
66% 30.37" Hg 1030.5 hPa